Airfield :
LOGIN :

Register | Disclaimer

   EN    FR    IT 

 










Legend :    VFR   Marginal VFR   IFR   Intensive IFR   Very Intensive IFR
Visi :
Ceiling :
>= 8 km
>= 3000ft
5 to 8 km
1000 to 3000 ft
1500m to 5 km
500 to 1000 ft
800 to 1500m
200 to 500 ft
< 800m
< 200 ft
Symbols :   Thunderstorms  Fog  Heavy snow  Heavy precipitations  Wind > 20 kt
SIGMETs :     Misc.  Thunderstorms  Icing  Turbulence  Mountain Waves  Volcanic Ashes






- Airport Elevation : 177 ft
- IATA code : AYT


LTAI - Antalya

CURRENT METAR :
  • 270050Z 36004KT 9999 SCT030 15/14 Q1013 NOSIG RMK RWY18C 35005KT RWY36R 33004KT RWY18L 32004KT

EXPIRED METARs :
  • 270020Z 36003KT 9999 SCT030 15/14 Q1013 NOSIG RMK RWY18C 01002KT RWY36R 36004KT RWY18L VRB02KT
  • 262350Z 36003KT 9999 SCT030 16/14 Q1014 NOSIG RMK RWY18C 35004KT RWY36R 01004KT RWY18L 35004KT
  • 262320Z 01002KT 9999 SCT030 16/14 Q1014 NOSIG RMK RWY18C 35004KT RWY36R 36004KT RWY18L 34002KT
  • 262250Z 34003KT 9999 SCT030 17/15 Q1014 NOSIG RMK RWY18C 35005KT RWY36R 00000KT RWY18L 33003KT
  • 262220Z 35003KT 9999 SCT030 17/15 Q1014 NOSIG RMK RWY18C 33003KT RWY36R 00000KT RWY18L 00000KT
  • 262150Z VRB02KT 9999 SCT030 18/16 Q1014 NOSIG RMK RWY18C 34004KT RWY36R 00000KT RWY18L 03001KT

TAF TAF LTAI
Valid from the 27 at 00:00 until the 28 at 00:00 UTC


262240Z 2700/2724 34006KT 9999 SCT030
BECMG 2706/2709 17012KT
TEMPO 2710/2714 FEW020CB BKN030
BECMG 2715/2718 34009KT
PROB40 2718/2722 -SHRA FEW020CB BKN030



MET'MAP, your aeronautical weather chart ! - Copyright ORBIFLY December 2007 - Disclaimer

ORBIFLY MET'MAP TEAM :

Programming & Development : Alexandra Zaïnal
Concept & original design : Baudouin d'Aumeries
Assistance for programming : Marc-Olivier Méhu
Technical & hardware support : Manuel Goepfert

Contact : metmap@orbifly.com




SOURCES & CREDITS :

   NOAA